sensor_id;sensor_type;location;lat;lon;timestamp;P1;durP1;ratioP1;P2;durP2;ratioP2
65835;SDS011;52595;51.608;7.216;2023-03-23T00:01:05;8.65;;;4.70;;
65835;SDS011;52595;51.608;7.216;2023-03-23T00:03:32;12.45;;;4.80;;
65835;SDS011;52595;51.608;7.216;2023-03-23T00:05:58;8.70;;;4.90;;
65835;SDS011;52595;51.608;7.216;2023-03-23T00:08:31;9.27;;;4.50;;
65835;SDS011;52595;51.608;7.216;2023-03-23T00:10:58;13.65;;;5.10;;
65835;SDS011;52595;51.608;7.216;2023-03-23T00:13:26;8.02;;;4.53;;
65835;SDS011;52595;51.608;7.216;2023-03-23T00:15:53;11.48;;;5.13;;
65835;SDS011;52595;51.608;7.216;2023-03-23T00:18:21;9.45;;;5.05;;
65835;SDS011;52595;51.608;7.216;2023-03-23T00:20:52;11.02;;;5.40;;
65835;SDS011;52595;51.608;7.216;2023-03-23T00:23:19;9.20;;;5.05;;
65835;SDS011;52595;51.608;7.216;2023-03-23T00:25:46;9.25;;;4.82;;
65835;SDS011;52595;51.608;7.216;2023-03-23T00:28:13;10.38;;;5.18;;
65835;SDS011;52595;51.608;7.216;2023-03-23T00:30:39;8.80;;;4.57;;
65835;SDS011;52595;51.608;7.216;2023-03-23T00:33:07;9.15;;;4.90;;
65835;SDS011;52595;51.608;7.216;2023-03-23T00:35:33;8.70;;;4.60;;
65835;SDS011;52595;51.608;7.216;2023-03-23T00:38:01;7.20;;;4.40;;
65835;SDS011;52595;51.608;7.216;2023-03-23T00:40:27;8.93;;;4.45;;
65835;SDS011;52595;51.608;7.216;2023-03-23T00:42:52;10.00;;;4.63;;
65835;SDS011;52595;51.608;7.216;2023-03-23T00:45:18;7.50;;;3.80;;
65835;SDS011;52595;51.608;7.216;2023-03-23T00:47:43;7.55;;;3.92;;
65835;SDS011;52595;51.608;7.216;2023-03-23T00:50:11;7.15;;;3.80;;
65835;SDS011;52595;51.608;7.216;2023-03-23T00:52:38;8.57;;;4.30;;
65835;SDS011;52595;51.608;7.216;2023-03-23T00:55:05;5.65;;;3.47;;
65835;SDS011;52595;51.608;7.216;2023-03-23T00:57:31;6.15;;;3.33;;
65835;SDS011;52595;51.608;7.216;2023-03-23T00:59:56;6.95;;;3.45;;
65835;SDS011;52595;51.608;7.216;2023-03-23T01:02:22;6.53;;;3.25;;
65835;SDS011;52595;51.608;7.216;2023-03-23T01:04:49;6.85;;;3.25;;
65835;SDS011;52595;51.608;7.216;2023-03-23T01:07:17;5.75;;;3.00;;
65835;SDS011;52595;51.608;7.216;2023-03-23T01:09:46;5.50;;;3.33;;
65835;SDS011;52595;51.608;7.216;2023-03-23T01:12:13;7.63;;;3.17;;
65835;SDS011;52595;51.608;7.216;2023-03-23T01:14:39;5.10;;;2.83;;
65835;SDS011;52595;51.608;7.216;2023-03-23T01:17:05;8.70;;;3.30;;
65835;SDS011;52595;51.608;7.216;2023-03-23T01:19:31;7.78;;;2.97;;
65835;SDS011;52595;51.608;7.216;2023-03-23T01:21:56;5.20;;;2.70;;
65835;SDS011;52595;51.608;7.216;2023-03-23T01:24:22;3.58;;;2.55;;
65835;SDS011;52595;51.608;7.216;2023-03-23T01:26:47;6.20;;;2.70;;
65835;SDS011;52595;51.608;7.216;2023-03-23T01:29:13;5.85;;;2.70;;
65835;SDS011;52595;51.608;7.216;2023-03-23T01:31:38;5.95;;;2.72;;
65835;SDS011;52595;51.608;7.216;2023-03-23T01:34:04;6.88;;;2.88;;
65835;SDS011;52595;51.608;7.216;2023-03-23T01:36:30;4.50;;;2.67;;
65835;SDS011;52595;51.608;7.216;2023-03-23T01:38:57;5.22;;;2.72;;
65835;SDS011;52595;51.608;7.216;2023-03-23T01:41:23;3.80;;;2.50;;
65835;SDS011;52595;51.608;7.216;2023-03-23T01:44:00;5.43;;;2.72;;
65835;SDS011;52595;51.608;7.216;2023-03-23T01:46:30;4.57;;;2.50;;
65835;SDS011;52595;51.608;7.216;2023-03-23T01:48:58;3.42;;;2.47;;
65835;SDS011;52595;51.608;7.216;2023-03-23T01:51:30;5.32;;;2.60;;
65835;SDS011;52595;51.608;7.216;2023-03-23T01:53:57;6.63;;;2.63;;
65835;SDS011;52595;51.608;7.216;2023-03-23T01:56:26;2.78;;;1.98;;
65835;SDS011;52595;51.608;7.216;2023-03-23T01:58:58;4.18;;;2.38;;
65835;SDS011;52595;51.608;7.216;2023-03-23T02:01:23;6.00;;;2.45;;
65835;SDS011;52595;51.608;7.216;2023-03-23T02:03:50;4.00;;;2.53;;
65835;SDS011;52595;51.608;7.216;2023-03-23T02:06:19;6.25;;;2.70;;
65835;SDS011;52595;51.608;7.216;2023-03-23T02:08:44;5.35;;;2.40;;
65835;SDS011;52595;51.608;7.216;2023-03-23T02:11:14;7.00;;;2.47;;
65835;SDS011;52595;51.608;7.216;2023-03-23T02:13:40;4.57;;;2.53;;
65835;SDS011;52595;51.608;7.216;2023-03-23T02:16:14;4.95;;;2.47;;
65835;SDS011;52595;51.608;7.216;2023-03-23T02:27:01;3.65;;;2.17;;
65835;SDS011;52595;51.608;7.216;2023-03-23T02:35:30;3.00;;;1.88;;
65835;SDS011;52595;51.608;7.216;2023-03-23T02:38:05;5.53;;;2.30;;
65835;SDS011;52595;51.608;7.216;2023-03-23T02:40:41;2.97;;;2.03;;
65835;SDS011;52595;51.608;7.216;2023-03-23T02:43:11;4.30;;;2.13;;
65835;SDS011;52595;51.608;7.216;2023-03-23T02:45:40;6.73;;;2.43;;
65835;SDS011;52595;51.608;7.216;2023-03-23T02:48:07;4.80;;;2.40;;
65835;SDS011;52595;51.608;7.216;2023-03-23T02:50:35;6.28;;;2.33;;
65835;SDS011;52595;51.608;7.216;2023-03-23T02:53:03;4.68;;;2.30;;
65835;SDS011;52595;51.608;7.216;2023-03-23T02:55:34;4.20;;;2.60;;
65835;SDS011;52595;51.608;7.216;2023-03-23T02:58:05;5.70;;;2.60;;
65835;SDS011;52595;51.608;7.216;2023-03-23T03:00:31;4.18;;;2.67;;
65835;SDS011;52595;51.608;7.216;2023-03-23T03:02:56;4.25;;;2.47;;
65835;SDS011;52595;51.608;7.216;2023-03-23T03:05:38;5.32;;;2.60;;
65835;SDS011;52595;51.608;7.216;2023-03-23T03:08:15;5.32;;;2.70;;
65835;SDS011;52595;51.608;7.216;2023-03-23T03:11:02;5.38;;;2.80;;
65835;SDS011;52595;51.608;7.216;2023-03-23T03:16:37;4.95;;;2.60;;
65835;SDS011;52595;51.608;7.216;2023-03-23T03:21:43;3.97;;;2.55;;
65835;SDS011;52595;51.608;7.216;2023-03-23T03:24:12;4.50;;;2.50;;
65835;SDS011;52595;51.608;7.216;2023-03-23T03:26:41;4.28;;;2.67;;
65835;SDS011;52595;51.608;7.216;2023-03-23T03:29:16;5.30;;;2.60;;
65835;SDS011;52595;51.608;7.216;2023-03-23T03:31:45;3.88;;;2.40;;
65835;SDS011;52595;51.608;7.216;2023-03-23T03:34:14;4.28;;;2.65;;
65835;SDS011;52595;51.608;7.216;2023-03-23T03:36:43;3.60;;;2.47;;
65835;SDS011;52595;51.608;7.216;2023-03-23T03:39:10;3.83;;;2.63;;
65835;SDS011;52595;51.608;7.216;2023-03-23T03:41:37;5.55;;;2.67;;
65835;SDS011;52595;51.608;7.216;2023-03-23T03:44:04;4.53;;;2.60;;
65835;SDS011;52595;51.608;7.216;2023-03-23T03:46:31;4.30;;;2.20;;
65835;SDS011;52595;51.608;7.216;2023-03-23T03:48:57;4.80;;;2.30;;
65835;SDS011;52595;51.608;7.216;2023-03-23T03:51:24;5.93;;;2.47;;
65835;SDS011;52595;51.608;7.216;2023-03-23T03:53:50;3.67;;;2.30;;
65835;SDS011;52595;51.608;7.216;2023-03-23T03:56:16;3.38;;;1.90;;
65835;SDS011;52595;51.608;7.216;2023-03-23T03:58:42;4.60;;;2.20;;
65835;SDS011;52595;51.608;7.216;2023-03-23T04:01:08;3.90;;;2.10;;
65835;SDS011;52595;51.608;7.216;2023-03-23T04:03:38;4.35;;;2.20;;
65835;SDS011;52595;51.608;7.216;2023-03-23T04:06:03;3.67;;;2.20;;
65835;SDS011;52595;51.608;7.216;2023-03-23T04:08:29;2.75;;;1.95;;
65835;SDS011;52595;51.608;7.216;2023-03-23T04:10:55;3.13;;;2.05;;
65835;SDS011;52595;51.608;7.216;2023-03-23T04:13:21;5.72;;;2.47;;
65835;SDS011;52595;51.608;7.216;2023-03-23T04:15:47;4.38;;;2.20;;
65835;SDS011;52595;51.608;7.216;2023-03-23T04:18:13;3.72;;;2.00;;
65835;SDS011;52595;51.608;7.216;2023-03-23T04:20:42;3.55;;;2.20;;
65835;SDS011;52595;51.608;7.216;2023-03-23T04:23:12;4.43;;;2.03;;
65835;SDS011;52595;51.608;7.216;2023-03-23T04:25:38;2.40;;;1.85;;
65835;SDS011;52595;51.608;7.216;2023-03-23T04:28:06;3.08;;;1.90;;
65835;SDS011;52595;51.608;7.216;2023-03-23T04:30:32;3.60;;;2.10;;
65835;SDS011;52595;51.608;7.216;2023-03-23T04:32:57;6.32;;;2.25;;
65835;SDS011;52595;51.608;7.216;2023-03-23T04:35:25;3.35;;;2.10;;
65835;SDS011;52595;51.608;7.216;2023-03-23T04:37:51;3.90;;;2.08;;
65835;SDS011;52595;51.608;7.216;2023-03-23T04:40:17;3.65;;;2.40;;
65835;SDS011;52595;51.608;7.216;2023-03-23T04:42:44;6.45;;;2.35;;
65835;SDS011;52595;51.608;7.216;2023-03-23T04:45:15;4.90;;;2.20;;
65835;SDS011;52595;51.608;7.216;2023-03-23T04:47:47;4.03;;;2.30;;
65835;SDS011;52595;51.608;7.216;2023-03-23T04:50:22;3.60;;;1.77;;
65835;SDS011;52595;51.608;7.216;2023-03-23T04:52:49;3.60;;;1.85;;
65835;SDS011;52595;51.608;7.216;2023-03-23T04:55:16;4.45;;;2.20;;
65835;SDS011;52595;51.608;7.216;2023-03-23T04:57:42;3.65;;;2.08;;
65835;SDS011;52595;51.608;7.216;2023-03-23T05:00:09;2.85;;;1.80;;
65835;SDS011;52595;51.608;7.216;2023-03-23T05:02:40;3.63;;;2.20;;
65835;SDS011;52595;51.608;7.216;2023-03-23T05:05:09;3.65;;;2.00;;
65835;SDS011;52595;51.608;7.216;2023-03-23T05:10:05;3.20;;;2.05;;
65835;SDS011;52595;51.608;7.216;2023-03-23T05:12:32;5.57;;;2.30;;
65835;SDS011;52595;51.608;7.216;2023-03-23T05:14:58;3.92;;;2.25;;
65835;SDS011;52595;51.608;7.216;2023-03-23T05:17:23;3.38;;;1.90;;
65835;SDS011;52595;51.608;7.216;2023-03-23T05:19:52;4.15;;;2.10;;
65835;SDS011;52595;51.608;7.216;2023-03-23T05:22:18;3.88;;;2.00;;
65835;SDS011;52595;51.608;7.216;2023-03-23T05:24:45;3.10;;;1.70;;
65835;SDS011;52595;51.608;7.216;2023-03-23T05:27:12;4.30;;;2.15;;
65835;SDS011;52595;51.608;7.216;2023-03-23T05:29:37;3.92;;;2.03;;
65835;SDS011;52595;51.608;7.216;2023-03-23T05:32:05;3.50;;;2.00;;
65835;SDS011;52595;51.608;7.216;2023-03-23T05:34:32;2.88;;;1.98;;
65835;SDS011;52595;51.608;7.216;2023-03-23T05:36:59;3.50;;;2.00;;
65835;SDS011;52595;51.608;7.216;2023-03-23T05:39:25;4.55;;;2.30;;
65835;SDS011;52595;51.608;7.216;2023-03-23T05:41:51;4.45;;;2.40;;
65835;SDS011;52595;51.608;7.216;2023-03-23T05:44:17;6.82;;;2.33;;
65835;SDS011;52595;51.608;7.216;2023-03-23T05:46:44;3.63;;;2.20;;
65835;SDS011;52595;51.608;7.216;2023-03-23T05:49:10;4.45;;;1.80;;
65835;SDS011;52595;51.608;7.216;2023-03-23T05:51:35;3.45;;;1.92;;
65835;SDS011;52595;51.608;7.216;2023-03-23T05:54:01;4.05;;;2.03;;
65835;SDS011;52595;51.608;7.216;2023-03-23T05:56:27;4.63;;;1.92;;
65835;SDS011;52595;51.608;7.216;2023-03-23T05:58:56;3.55;;;2.08;;
65835;SDS011;52595;51.608;7.216;2023-03-23T06:01:23;3.78;;;2.25;;
65835;SDS011;52595;51.608;7.216;2023-03-23T06:03:49;3.60;;;2.03;;
65835;SDS011;52595;51.608;7.216;2023-03-23T06:06:16;3.78;;;2.25;;
65835;SDS011;52595;51.608;7.216;2023-03-23T06:08:41;3.72;;;2.05;;
65835;SDS011;52595;51.608;7.216;2023-03-23T06:11:07;4.47;;;2.13;;
65835;SDS011;52595;51.608;7.216;2023-03-23T06:13:33;3.38;;;2.10;;
65835;SDS011;52595;51.608;7.216;2023-03-23T06:15:59;3.78;;;2.15;;
65835;SDS011;52595;51.608;7.216;2023-03-23T06:18:24;3.53;;;2.20;;
65835;SDS011;52595;51.608;7.216;2023-03-23T06:20:51;3.15;;;1.88;;
65835;SDS011;52595;51.608;7.216;2023-03-23T06:23:17;3.30;;;2.03;;
65835;SDS011;52595;51.608;7.216;2023-03-23T06:25:43;5.15;;;2.60;;
65835;SDS011;52595;51.608;7.216;2023-03-23T06:28:09;3.22;;;2.10;;
65835;SDS011;52595;51.608;7.216;2023-03-23T06:30:35;2.88;;;1.80;;
65835;SDS011;52595;51.608;7.216;2023-03-23T06:33:02;4.50;;;2.03;;
65835;SDS011;52595;51.608;7.216;2023-03-23T06:35:30;4.63;;;2.17;;
65835;SDS011;52595;51.608;7.216;2023-03-23T06:37:56;4.40;;;2.22;;
65835;SDS011;52595;51.608;7.216;2023-03-23T06:40:26;2.17;;;1.65;;
65835;SDS011;52595;51.608;7.216;2023-03-23T06:42:52;3.10;;;2.10;;
65835;SDS011;52595;51.608;7.216;2023-03-23T06:45:18;3.75;;;2.03;;
65835;SDS011;52595;51.608;7.216;2023-03-23T06:47:44;5.75;;;2.30;;
65835;SDS011;52595;51.608;7.216;2023-03-23T06:50:13;4.32;;;2.08;;
65835;SDS011;52595;51.608;7.216;2023-03-23T06:52:40;5.18;;;2.25;;
65835;SDS011;52595;51.608;7.216;2023-03-23T06:55:05;4.22;;;2.17;;
65835;SDS011;52595;51.608;7.216;2023-03-23T06:57:31;4.78;;;2.35;;
65835;SDS011;52595;51.608;7.216;2023-03-23T06:59:57;5.65;;;2.28;;
65835;SDS011;52595;51.608;7.216;2023-03-23T07:02:22;3.80;;;2.22;;
65835;SDS011;52595;51.608;7.216;2023-03-23T07:04:48;3.50;;;1.90;;
65835;SDS011;52595;51.608;7.216;2023-03-23T07:07:14;3.25;;;2.00;;
65835;SDS011;52595;51.608;7.216;2023-03-23T07:09:43;4.65;;;2.20;;
65835;SDS011;52595;51.608;7.216;2023-03-23T07:12:09;2.90;;;1.73;;
65835;SDS011;52595;51.608;7.216;2023-03-23T07:14:34;7.43;;;2.38;;
65835;SDS011;52595;51.608;7.216;2023-03-23T07:17:00;3.28;;;1.90;;
65835;SDS011;52595;51.608;7.216;2023-03-23T07:19:28;2.80;;;1.70;;
65835;SDS011;52595;51.608;7.216;2023-03-23T07:21:53;3.60;;;1.98;;
65835;SDS011;52595;51.608;7.216;2023-03-23T07:24:19;5.15;;;2.10;;
65835;SDS011;52595;51.608;7.216;2023-03-23T07:26:44;3.58;;;1.80;;
65835;SDS011;52595;51.608;7.216;2023-03-23T07:29:10;5.28;;;2.10;;
65835;SDS011;52595;51.608;7.216;2023-03-23T07:31:35;3.60;;;1.77;;
65835;SDS011;52595;51.608;7.216;2023-03-23T07:34:01;3.78;;;1.60;;
65835;SDS011;52595;51.608;7.216;2023-03-23T07:36:27;2.90;;;1.60;;
65835;SDS011;52595;51.608;7.216;2023-03-23T07:38:53;3.70;;;1.80;;
65835;SDS011;52595;51.608;7.216;2023-03-23T07:41:19;5.63;;;1.65;;
65835;SDS011;52595;51.608;7.216;2023-03-23T07:43:45;4.30;;;1.80;;
65835;SDS011;52595;51.608;7.216;2023-03-23T07:46:11;2.60;;;1.63;;
65835;SDS011;52595;51.608;7.216;2023-03-23T07:48:37;6.20;;;1.85;;
65835;SDS011;52595;51.608;7.216;2023-03-23T07:51:03;2.10;;;1.60;;
65835;SDS011;52595;51.608;7.216;2023-03-23T07:53:30;3.67;;;1.80;;
65835;SDS011;52595;51.608;7.216;2023-03-23T07:55:55;3.38;;;1.52;;
65835;SDS011;52595;51.608;7.216;2023-03-23T07:58:21;4.65;;;1.63;;
65835;SDS011;52595;51.608;7.216;2023-03-23T08:00:46;3.42;;;1.80;;
65835;SDS011;52595;51.608;7.216;2023-03-23T08:03:14;2.95;;;1.50;;
65835;SDS011;52595;51.608;7.216;2023-03-23T08:05:40;4.63;;;1.70;;
65835;SDS011;52595;51.608;7.216;2023-03-23T08:08:07;3.55;;;1.30;;
65835;SDS011;52595;51.608;7.216;2023-03-23T08:10:33;5.05;;;1.77;;
65835;SDS011;52595;51.608;7.216;2023-03-23T08:12:58;4.72;;;1.40;;
65835;SDS011;52595;51.608;7.216;2023-03-23T08:15:24;3.42;;;1.65;;
65835;SDS011;52595;51.608;7.216;2023-03-23T08:17:51;2.58;;;1.50;;
65835;SDS011;52595;51.608;7.216;2023-03-23T08:20:17;4.30;;;1.58;;
65835;SDS011;52595;51.608;7.216;2023-03-23T08:22:44;2.50;;;1.52;;
65835;SDS011;52595;51.608;7.216;2023-03-23T08:25:13;3.35;;;1.52;;
65835;SDS011;52595;51.608;7.216;2023-03-23T08:27:39;7.05;;;1.90;;
65835;SDS011;52595;51.608;7.216;2023-03-23T08:30:12;4.57;;;1.67;;
65835;SDS011;52595;51.608;7.216;2023-03-23T08:32:42;2.30;;;1.30;;
65835;SDS011;52595;51.608;7.216;2023-03-23T08:35:09;2.40;;;1.48;;
65835;SDS011;52595;51.608;7.216;2023-03-23T08:37:36;3.10;;;1.33;;
65835;SDS011;52595;51.608;7.216;2023-03-23T08:40:02;4.32;;;1.50;;
65835;SDS011;52595;51.608;7.216;2023-03-23T08:42:33;3.75;;;1.50;;
65835;SDS011;52595;51.608;7.216;2023-03-23T08:44:59;4.40;;;1.40;;
65835;SDS011;52595;51.608;7.216;2023-03-23T08:47:25;4.35;;;1.52;;
65835;SDS011;52595;51.608;7.216;2023-03-23T08:49:51;3.28;;;1.70;;
65835;SDS011;52595;51.608;7.216;2023-03-23T08:52:19;4.15;;;2.08;;
65835;SDS011;52595;51.608;7.216;2023-03-23T08:54:44;3.17;;;1.85;;
65835;SDS011;52595;51.608;7.216;2023-03-23T08:57:12;4.75;;;1.52;;
65835;SDS011;52595;51.608;7.216;2023-03-23T08:59:39;2.70;;;1.45;;
65835;SDS011;52595;51.608;7.216;2023-03-23T09:02:08;4.97;;;1.58;;
65835;SDS011;52595;51.608;7.216;2023-03-23T09:04:35;5.45;;;1.85;;
65835;SDS011;52595;51.608;7.216;2023-03-23T09:07:04;3.75;;;1.58;;
65835;SDS011;52595;51.608;7.216;2023-03-23T09:09:31;5.57;;;2.00;;
65835;SDS011;52595;51.608;7.216;2023-03-23T09:11:57;4.25;;;1.58;;
65835;SDS011;52595;51.608;7.216;2023-03-23T09:14:23;4.18;;;1.60;;
65835;SDS011;52595;51.608;7.216;2023-03-23T09:16:48;4.82;;;2.13;;
65835;SDS011;52595;51.608;7.216;2023-03-23T09:19:14;3.58;;;1.52;;
65835;SDS011;52595;51.608;7.216;2023-03-23T09:21:40;6.90;;;1.50;;
65835;SDS011;52595;51.608;7.216;2023-03-23T09:24:06;5.95;;;2.67;;
65835;SDS011;52595;51.608;7.216;2023-03-23T09:26:32;3.70;;;1.77;;
65835;SDS011;52595;51.608;7.216;2023-03-23T09:28:57;5.25;;;1.67;;
65835;SDS011;52595;51.608;7.216;2023-03-23T09:31:23;5.88;;;1.70;;
65835;SDS011;52595;51.608;7.216;2023-03-23T09:33:51;3.65;;;1.42;;
65835;SDS011;52595;51.608;7.216;2023-03-23T09:36:18;4.53;;;1.67;;
65835;SDS011;52595;51.608;7.216;2023-03-23T09:38:46;2.15;;;1.23;;
65835;SDS011;52595;51.608;7.216;2023-03-23T09:41:24;4.32;;;1.63;;
65835;SDS011;52595;51.608;7.216;2023-03-23T09:44:12;6.97;;;1.90;;
65835;SDS011;52595;51.608;7.216;2023-03-23T09:49:27;4.18;;;1.80;;
65835;SDS011;52595;51.608;7.216;2023-03-23T09:51:59;8.88;;;2.30;;
65835;SDS011;52595;51.608;7.216;2023-03-23T09:54:45;3.00;;;1.55;;
65835;SDS011;52595;51.608;7.216;2023-03-23T09:57:18;6.90;;;2.35;;
65835;SDS011;52595;51.608;7.216;2023-03-23T09:59:53;4.55;;;1.80;;
65835;SDS011;52595;51.608;7.216;2023-03-23T10:02:26;3.33;;;1.45;;
65835;SDS011;52595;51.608;7.216;2023-03-23T10:04:56;2.53;;;1.30;;
65835;SDS011;52595;51.608;7.216;2023-03-23T10:07:40;6.15;;;1.38;;
65835;SDS011;52595;51.608;7.216;2023-03-23T10:10:07;3.08;;;1.35;;
65835;SDS011;52595;51.608;7.216;2023-03-23T10:15:18;3.90;;;1.40;;
65835;SDS011;52595;51.608;7.216;2023-03-23T10:23:42;5.88;;;1.75;;
65835;SDS011;52595;51.608;7.216;2023-03-23T10:28:50;2.45;;;1.30;;
65835;SDS011;52595;51.608;7.216;2023-03-23T10:31:24;4.63;;;1.33;;
65835;SDS011;52595;51.608;7.216;2023-03-23T10:33:55;6.63;;;2.30;;
65835;SDS011;52595;51.608;7.216;2023-03-23T10:36:36;2.28;;;0.95;;
65835;SDS011;52595;51.608;7.216;2023-03-23T10:39:17;5.05;;;1.33;;
65835;SDS011;52595;51.608;7.216;2023-03-23T10:44:14;3.53;;;1.60;;
65835;SDS011;52595;51.608;7.216;2023-03-23T10:46:46;5.72;;;2.05;;
65835;SDS011;52595;51.608;7.216;2023-03-23T10:49:41;4.47;;;2.03;;
65835;SDS011;52595;51.608;7.216;2023-03-23T10:52:19;7.80;;;2.78;;
65835;SDS011;52595;51.608;7.216;2023-03-23T10:55:06;4.53;;;2.22;;
65835;SDS011;52595;51.608;7.216;2023-03-23T10:57:35;5.00;;;1.97;;
65835;SDS011;52595;51.608;7.216;2023-03-23T11:02:35;6.57;;;2.33;;
65835;SDS011;52595;51.608;7.216;2023-03-23T11:05:07;3.40;;;1.67;;
65835;SDS011;52595;51.608;7.216;2023-03-23T11:07:41;6.88;;;1.88;;
65835;SDS011;52595;51.608;7.216;2023-03-23T11:12:50;4.70;;;1.60;;
65835;SDS011;52595;51.608;7.216;2023-03-23T11:18:06;5.10;;;1.58;;
65835;SDS011;52595;51.608;7.216;2023-03-23T11:20:37;8.20;;;1.73;;
65835;SDS011;52595;51.608;7.216;2023-03-23T11:23:13;5.10;;;1.77;;
65835;SDS011;52595;51.608;7.216;2023-03-23T11:28:50;5.72;;;1.58;;
65835;SDS011;52595;51.608;7.216;2023-03-23T11:31:29;4.15;;;1.77;;
65835;SDS011;52595;51.608;7.216;2023-03-23T11:34:04;4.78;;;1.90;;
65835;SDS011;52595;51.608;7.216;2023-03-23T11:36:36;7.82;;;2.40;;
65835;SDS011;52595;51.608;7.216;2023-03-23T11:39:18;4.05;;;1.80;;
65835;SDS011;52595;51.608;7.216;2023-03-23T11:41:59;5.85;;;2.17;;
65835;SDS011;52595;51.608;7.216;2023-03-23T11:44:40;5.53;;;2.00;;
65835;SDS011;52595;51.608;7.216;2023-03-23T11:47:17;4.45;;;2.10;;
65835;SDS011;52595;51.608;7.216;2023-03-23T11:50:03;7.32;;;2.83;;
65835;SDS011;52595;51.608;7.216;2023-03-23T11:52:40;10.00;;;2.45;;
65835;SDS011;52595;51.608;7.216;2023-03-23T11:55:11;5.15;;;2.20;;
65835;SDS011;52595;51.608;7.216;2023-03-23T11:57:40;6.18;;;2.33;;
65835;SDS011;52595;51.608;7.216;2023-03-23T12:00:14;4.15;;;1.98;;
65835;SDS011;52595;51.608;7.216;2023-03-23T12:05:43;5.80;;;2.13;;
65835;SDS011;52595;51.608;7.216;2023-03-23T12:16:27;5.53;;;2.47;;
65835;SDS011;52595;51.608;7.216;2023-03-23T12:41:05;9.80;;;4.35;;
65835;SDS011;52595;51.608;7.216;2023-03-23T12:49:46;9.13;;;5.10;;
65835;SDS011;52595;51.608;7.216;2023-03-23T12:52:32;10.07;;;5.22;;
65835;SDS011;52595;51.608;7.216;2023-03-23T12:55:02;10.27;;;4.63;;
65835;SDS011;52595;51.608;7.216;2023-03-23T12:57:38;8.00;;;4.60;;
65835;SDS011;52595;51.608;7.216;2023-03-23T13:02:52;8.00;;;4.15;;
65835;SDS011;52595;51.608;7.216;2023-03-23T13:07:49;9.48;;;4.72;;
65835;SDS011;52595;51.608;7.216;2023-03-23T13:10:22;6.68;;;3.33;;
65835;SDS011;52595;51.608;7.216;2023-03-23T13:12:51;6.93;;;3.35;;
65835;SDS011;52595;51.608;7.216;2023-03-23T13:15:21;5.90;;;3.53;;
65835;SDS011;52595;51.608;7.216;2023-03-23T13:20:45;5.47;;;3.35;;
65835;SDS011;52595;51.608;7.216;2023-03-23T13:26:17;5.22;;;3.17;;
65835;SDS011;52595;51.608;7.216;2023-03-23T13:28:55;5.07;;;3.08;;
65835;SDS011;52595;51.608;7.216;2023-03-23T13:31:31;6.60;;;3.28;;
65835;SDS011;52595;51.608;7.216;2023-03-23T13:34:02;5.78;;;3.40;;
65835;SDS011;52595;51.608;7.216;2023-03-23T13:36:35;5.90;;;2.63;;
65835;SDS011;52595;51.608;7.216;2023-03-23T13:39:06;5.32;;;2.70;;
65835;SDS011;52595;51.608;7.216;2023-03-23T13:41:49;6.35;;;2.67;;
65835;SDS011;52595;51.608;7.216;2023-03-23T13:44:38;4.13;;;2.60;;
65835;SDS011;52595;51.608;7.216;2023-03-23T13:50:30;4.63;;;2.47;;
65835;SDS011;52595;51.608;7.216;2023-03-23T13:52:52;5.38;;;2.53;;
65835;SDS011;52595;51.608;7.216;2023-03-23T13:55:21;3.90;;;2.20;;
65835;SDS011;52595;51.608;7.216;2023-03-23T14:00:33;5.93;;;3.00;;
65835;SDS011;52595;51.608;7.216;2023-03-23T14:05:48;5.47;;;2.80;;
65835;SDS011;52595;51.608;7.216;2023-03-23T14:10:54;7.18;;;3.13;;
65835;SDS011;52595;51.608;7.216;2023-03-23T14:13:47;5.70;;;3.08;;
65835;SDS011;52595;51.608;7.216;2023-03-23T14:16:26;6.10;;;2.80;;
65835;SDS011;52595;51.608;7.216;2023-03-23T14:18:58;7.68;;;3.22;;
65835;SDS011;52595;51.608;7.216;2023-03-23T14:21:36;6.55;;;3.15;;
65835;SDS011;52595;51.608;7.216;2023-03-23T14:24:09;8.95;;;3.30;;
65835;SDS011;52595;51.608;7.216;2023-03-23T14:26:36;8.32;;;3.65;;
65835;SDS011;52595;51.608;7.216;2023-03-23T14:29:02;6.32;;;3.03;;
65835;SDS011;52595;51.608;7.216;2023-03-23T14:31:29;5.82;;;2.85;;
65835;SDS011;52595;51.608;7.216;2023-03-23T14:33:55;6.80;;;2.70;;
65835;SDS011;52595;51.608;7.216;2023-03-23T14:36:27;4.80;;;2.72;;
65835;SDS011;52595;51.608;7.216;2023-03-23T14:41:41;4.63;;;2.63;;
65835;SDS011;52595;51.608;7.216;2023-03-23T14:44:08;5.85;;;2.20;;
65835;SDS011;52595;51.608;7.216;2023-03-23T14:46:46;5.50;;;2.33;;
65835;SDS011;52595;51.608;7.216;2023-03-23T14:49:16;4.68;;;2.00;;
65835;SDS011;52595;51.608;7.216;2023-03-23T14:51:48;4.60;;;2.28;;
65835;SDS011;52595;51.608;7.216;2023-03-23T14:56:40;5.95;;;2.45;;
65835;SDS011;52595;51.608;7.216;2023-03-23T14:59:09;5.68;;;2.50;;
65835;SDS011;52595;51.608;7.216;2023-03-23T15:01:36;4.50;;;2.60;;
65835;SDS011;52595;51.608;7.216;2023-03-23T15:04:13;5.03;;;2.60;;
65835;SDS011;52595;51.608;7.216;2023-03-23T15:06:55;4.78;;;2.50;;
65835;SDS011;52595;51.608;7.216;2023-03-23T15:09:25;5.70;;;2.70;;
65835;SDS011;52595;51.608;7.216;2023-03-23T15:11:58;3.08;;;2.33;;
65835;SDS011;52595;51.608;7.216;2023-03-23T15:14:37;6.97;;;2.75;;
65835;SDS011;52595;51.608;7.216;2023-03-23T15:17:18;4.03;;;2.60;;
65835;SDS011;52595;51.608;7.216;2023-03-23T15:19:45;5.55;;;2.45;;
65835;SDS011;52595;51.608;7.216;2023-03-23T15:22:25;5.47;;;2.60;;
65835;SDS011;52595;51.608;7.216;2023-03-23T15:25:01;4.72;;;2.30;;
65835;SDS011;52595;51.608;7.216;2023-03-23T15:27:41;5.97;;;2.25;;
65835;SDS011;52595;51.608;7.216;2023-03-23T15:30:19;4.93;;;2.40;;
65835;SDS011;52595;51.608;7.216;2023-03-23T15:33:01;4.82;;;2.10;;
65835;SDS011;52595;51.608;7.216;2023-03-23T15:35:35;4.05;;;2.28;;
65835;SDS011;52595;51.608;7.216;2023-03-23T15:38:06;3.90;;;2.00;;
65835;SDS011;52595;51.608;7.216;2023-03-23T15:40:42;2.45;;;1.48;;
65835;SDS011;52595;51.608;7.216;2023-03-23T15:51:19;3.63;;;1.70;;
65835;SDS011;52595;51.608;7.216;2023-03-23T15:53:45;4.53;;;1.80;;
65835;SDS011;52595;51.608;7.216;2023-03-23T15:56:12;5.97;;;2.15;;
65835;SDS011;52595;51.608;7.216;2023-03-23T15:58:38;2.58;;;1.58;;
65835;SDS011;52595;51.608;7.216;2023-03-23T16:01:05;4.53;;;1.80;;
65835;SDS011;52595;51.608;7.216;2023-03-23T16:06:27;5.97;;;1.75;;
65835;SDS011;52595;51.608;7.216;2023-03-23T16:08:54;4.05;;;2.00;;
65835;SDS011;52595;51.608;7.216;2023-03-23T16:11:21;5.25;;;1.90;;
65835;SDS011;52595;51.608;7.216;2023-03-23T16:13:47;3.25;;;1.63;;
65835;SDS011;52595;51.608;7.216;2023-03-23T16:16:13;5.72;;;1.80;;
65835;SDS011;52595;51.608;7.216;2023-03-23T16:18:41;4.28;;;1.67;;
65835;SDS011;52595;51.608;7.216;2023-03-23T16:21:07;2.92;;;1.60;;
65835;SDS011;52595;51.608;7.216;2023-03-23T16:23:33;5.03;;;1.80;;
65835;SDS011;52595;51.608;7.216;2023-03-23T16:25:58;6.18;;;1.73;;
65835;SDS011;52595;51.608;7.216;2023-03-23T16:28:23;2.95;;;1.48;;
65835;SDS011;52595;51.608;7.216;2023-03-23T16:30:49;6.05;;;2.00;;
65835;SDS011;52595;51.608;7.216;2023-03-23T16:33:14;3.38;;;1.63;;
65835;SDS011;52595;51.608;7.216;2023-03-23T16:35:40;5.20;;;1.85;;
65835;SDS011;52595;51.608;7.216;2023-03-23T16:38:05;5.00;;;1.80;;
65835;SDS011;52595;51.608;7.216;2023-03-23T16:40:31;4.18;;;1.80;;
65835;SDS011;52595;51.608;7.216;2023-03-23T16:42:57;5.82;;;2.00;;
65835;SDS011;52595;51.608;7.216;2023-03-23T16:45:23;5.35;;;1.80;;
65835;SDS011;52595;51.608;7.216;2023-03-23T16:47:50;6.93;;;2.00;;
65835;SDS011;52595;51.608;7.216;2023-03-23T16:50:16;3.13;;;1.67;;
65835;SDS011;52595;51.608;7.216;2023-03-23T16:52:43;6.88;;;1.80;;
65835;SDS011;52595;51.608;7.216;2023-03-23T16:55:11;4.78;;;2.03;;
65835;SDS011;52595;51.608;7.216;2023-03-23T16:57:37;3.58;;;1.75;;
65835;SDS011;52595;51.608;7.216;2023-03-23T17:00:04;5.03;;;2.10;;
65835;SDS011;52595;51.608;7.216;2023-03-23T17:02:36;4.55;;;1.90;;
65835;SDS011;52595;51.608;7.216;2023-03-23T17:05:04;6.20;;;1.80;;
65835;SDS011;52595;51.608;7.216;2023-03-23T17:07:30;5.15;;;2.00;;